createdAt,value
2018-07-08T00:01:48.692Z,94679.05
2018-07-08T00:04:17.767Z,94687.27
2018-07-08T00:06:46.826Z,94681.12
2018-07-08T00:09:16.591Z,94684.66
2018-07-08T00:11:45.769Z,94686.05
2018-07-08T00:14:14.928Z,94684.81
2018-07-08T00:16:44.307Z,94686.11
2018-07-08T00:19:13.274Z,94681.86
2018-07-08T00:21:42.344Z,94681.14
2018-07-08T00:24:11.507Z,94682.56
2018-07-08T00:26:40.555Z,94675.00
2018-07-08T00:29:09.662Z,94674.47
2018-07-08T00:31:39.082Z,94674.75
2018-07-08T00:34:08.135Z,94673.72
2018-07-08T00:36:37.247Z,94673.72
2018-07-08T00:39:08.259Z,94676.38
2018-07-08T00:41:37.705Z,94679.84
2018-07-08T00:44:07.556Z,94673.94
2018-07-08T00:46:37.019Z,94678.52
2018-07-08T00:49:06.311Z,94675.74
2018-07-08T00:51:35.256Z,94677.31
2018-07-08T00:54:04.469Z,94672.27
2018-07-08T00:56:33.500Z,94677.81
2018-07-08T00:59:02.588Z,94676.09
2018-07-08T01:01:32.029Z,94677.89
2018-07-08T01:04:01.213Z,94672.55
2018-07-08T01:06:30.324Z,94676.84
2018-07-08T01:08:59.426Z,94677.35
2018-07-08T01:11:28.419Z,94673.19
2018-07-08T01:13:57.483Z,94674.41
2018-07-08T01:16:26.799Z,94667.42
2018-07-08T01:18:55.799Z,94670.71
2018-07-08T01:21:24.867Z,94666.72
2018-07-08T01:23:54.027Z,94669.36
2018-07-08T01:26:23.119Z,94668.39
2018-07-08T01:28:52.337Z,94676.73
2018-07-08T01:31:21.768Z,94673.36
2018-07-08T01:33:50.489Z,94672.98
2018-07-08T01:36:19.543Z,94675.51
2018-07-08T01:38:49.006Z,94674.59
2018-07-08T01:41:18.180Z,94675.34
2018-07-08T01:43:48.358Z,94675.27
2018-07-08T01:46:17.334Z,94666.55
2018-07-08T01:48:47.000Z,94669.96
2018-07-08T01:51:16.300Z,94658.68
2018-07-08T01:53:46.303Z,94664.16
2018-07-08T01:56:15.206Z,94660.28
2018-07-08T01:58:44.192Z,94662.09
2018-07-08T02:01:13.814Z,94658.39
2018-07-08T02:03:42.795Z,94659.81
2018-07-08T02:06:11.906Z,94661.87
2018-07-08T02:08:41.516Z,94656.70
2018-07-08T02:11:10.392Z,94657.11
2018-07-08T02:13:39.658Z,94658.91
2018-07-08T02:16:09.246Z,94654.79
2018-07-08T02:18:38.108Z,94654.55
2018-07-08T02:21:07.258Z,94658.37
2018-07-08T02:23:36.823Z,94662.83
2018-07-08T02:26:06.515Z,94652.94
2018-07-08T02:28:35.574Z,94653.16
2018-07-08T02:31:05.085Z,94648.70
2018-07-08T02:33:34.424Z,94648.66
2018-07-08T02:36:03.826Z,94645.88
2018-07-08T02:38:33.550Z,94654.05
2018-07-08T02:41:02.401Z,94649.92
2018-07-08T02:43:31.423Z,94651.50
2018-07-08T02:46:00.902Z,94654.66
2018-07-08T02:48:30.191Z,94657.98
2018-07-08T02:50:59.244Z,94645.95
2018-07-08T02:53:28.364Z,94659.84
2018-07-08T02:55:57.307Z,94657.28
2018-07-08T02:58:26.364Z,94647.14
2018-07-08T03:00:55.868Z,94649.75
2018-07-08T03:03:24.753Z,94648.88
2018-07-08T03:05:53.650Z,94650.39
2018-07-08T03:08:22.934Z,94652.61
2018-07-08T03:10:52.028Z,94653.70
2018-07-08T03:13:20.970Z,94654.22
2018-07-08T03:15:50.326Z,94659.60
2018-07-08T03:18:19.458Z,94652.31
2018-07-08T03:20:48.657Z,94652.83
2018-07-08T03:23:17.715Z,94650.27
2018-07-08T03:25:46.761Z,94652.19
2018-07-08T03:28:15.959Z,94648.13
2018-07-08T03:30:45.358Z,94648.78
2018-07-08T03:33:14.547Z,94646.17
2018-07-08T03:35:44.263Z,94650.80
2018-07-08T03:38:13.472Z,94644.66
2018-07-08T03:40:42.518Z,94641.92
2018-07-08T03:43:11.562Z,94646.53
2018-07-08T03:45:41.323Z,94644.75
2018-07-08T03:48:10.364Z,94637.84
2018-07-08T03:50:40.314Z,94639.75
2018-07-08T03:53:09.767Z,94635.27
2018-07-08T03:55:39.586Z,94643.03
2018-07-08T03:58:09.212Z,94632.61
2018-07-08T04:00:38.438Z,94646.30
2018-07-08T04:03:07.527Z,94638.36
2018-07-08T04:05:36.550Z,94640.83
2018-07-08T04:08:06.047Z,94644.63
2018-07-08T04:10:35.283Z,94639.81
2018-07-08T04:13:04.428Z,94650.14
2018-07-08T04:15:34.059Z,94648.31
2018-07-08T04:18:08.564Z,94651.63
2018-07-08T04:20:39.619Z,94649.52
2018-07-08T04:23:10.336Z,94646.49
2018-07-08T04:25:40.463Z,94638.43
2018-07-08T04:28:09.748Z,94646.79
2018-07-08T04:30:39.046Z,94643.38
2018-07-08T04:33:08.661Z,94643.94
2018-07-08T04:35:39.390Z,94648.10
2018-07-08T04:38:08.591Z,94643.07
2018-07-08T04:40:38.004Z,94645.95
2018-07-08T04:43:07.261Z,94643.47
2018-07-08T04:45:36.492Z,94652.91
2018-07-08T04:48:06.091Z,94648.72
2018-07-08T04:50:34.747Z,94646.45
2018-07-08T04:53:03.871Z,94645.45
2018-07-08T04:55:33.631Z,94644.39
2018-07-08T04:58:03.158Z,94644.36
2018-07-08T05:00:32.222Z,94648.98
2018-07-08T05:03:01.695Z,94648.14
2018-07-08T05:05:30.626Z,94650.52
2018-07-08T05:08:01.427Z,94647.94
2018-07-08T05:10:30.888Z,94648.17
2018-07-08T05:13:00.683Z,94648.58
2018-07-08T05:15:29.944Z,94651.58
2018-07-08T05:17:59.782Z,94654.33
2018-07-08T05:20:28.996Z,94660.19
2018-07-08T05:22:58.171Z,94667.40
2018-07-08T05:25:27.798Z,94664.72
2018-07-08T05:27:56.889Z,94664.68
2018-07-08T05:30:25.935Z,94668.76
2018-07-08T05:32:55.319Z,94668.09
2018-07-08T05:35:24.742Z,94667.94
2018-07-08T05:37:54.039Z,94671.67
2018-07-08T05:40:23.762Z,94677.70
2018-07-08T05:42:53.256Z,94670.95
2018-07-08T05:45:22.503Z,94675.55
2018-07-08T05:47:51.791Z,94674.91
2018-07-08T05:50:21.162Z,94678.77
2018-07-08T05:52:50.178Z,94675.66
2018-07-08T05:55:19.486Z,94669.34
2018-07-08T05:57:48.308Z,94682.09
2018-07-08T06:00:17.451Z,94681.97
2018-07-08T06:02:46.839Z,94679.85
2018-07-08T06:05:15.947Z,94679.64
2018-07-08T06:07:44.968Z,94682.72
2018-07-08T06:10:14.422Z,94680.88
2018-07-08T06:12:43.533Z,94678.95
2018-07-08T06:15:12.756Z,94683.79
2018-07-08T06:17:41.734Z,94679.61
2018-07-08T06:20:12.055Z,94676.08
2018-07-08T06:22:41.303Z,94675.84
2018-07-08T06:25:10.978Z,94681.73
2018-07-08T06:27:40.032Z,94674.13
2018-07-08T06:30:09.282Z,94671.33
2018-07-08T06:32:38.409Z,94670.66
2018-07-08T06:35:07.417Z,94673.12
2018-07-08T06:37:36.500Z,94671.27
2018-07-08T06:40:05.495Z,94673.09
2018-07-08T06:42:34.521Z,94668.78
2018-07-08T06:45:03.610Z,94670.74
2018-07-08T06:47:32.956Z,94669.66
2018-07-08T06:50:02.599Z,94666.80
2018-07-08T06:52:32.574Z,94664.94
2018-07-08T06:55:02.118Z,94672.87
2018-07-08T06:57:32.631Z,94667.47
2018-07-08T07:00:02.122Z,94669.35
2018-07-08T07:02:31.996Z,94675.06
2018-07-08T07:05:01.289Z,94673.20
2018-07-08T07:07:30.609Z,94665.34
2018-07-08T07:10:00.055Z,94670.38
2018-07-08T07:12:29.314Z,94663.18
2018-07-08T07:14:58.443Z,94670.74
2018-07-08T07:17:28.211Z,94667.16
2018-07-08T07:19:58.133Z,94668.84
2018-07-08T07:22:26.946Z,94669.92
2018-07-08T07:24:56.514Z,94672.63
2018-07-08T07:27:25.340Z,94670.47
2018-07-08T07:29:54.433Z,94656.53
2018-07-08T07:32:23.617Z,94664.59
2018-07-08T07:34:52.624Z,94656.81
2018-07-08T07:37:21.595Z,94659.45
2018-07-08T07:39:50.691Z,94660.91
2018-07-08T07:42:19.714Z,94660.90
2018-07-08T07:44:48.598Z,94653.59
2018-07-08T07:47:17.918Z,94656.58
2018-07-08T07:49:47.216Z,94661.12
2018-07-08T07:52:16.216Z,94654.94
2018-07-08T07:54:45.734Z,94655.64
2018-07-08T07:57:14.808Z,94660.38
2018-07-08T07:59:43.821Z,94655.94
2018-07-08T08:02:13.316Z,94654.05
2018-07-08T08:04:42.284Z,94657.81
2018-07-08T08:07:11.303Z,94653.78
2018-07-08T08:09:40.335Z,94650.43
2018-07-08T08:12:09.541Z,94649.35
2018-07-08T08:14:38.479Z,94652.26
2018-07-08T08:17:07.606Z,94653.84
2018-07-08T08:20:17.040Z,94662.87
2018-07-08T08:22:46.343Z,94657.64
2018-07-08T08:25:15.496Z,94653.15
2018-07-08T08:27:44.544Z,94658.86
2018-07-08T08:30:13.742Z,94653.62
2018-07-08T08:32:42.956Z,94659.58
2018-07-08T08:35:16.551Z,94658.97
2018-07-08T08:37:49.649Z,94656.17
2018-07-08T08:40:19.755Z,94654.52
2018-07-08T08:42:48.746Z,94655.73
2018-07-08T08:45:18.690Z,94654.39
2018-07-08T08:47:48.252Z,94661.61
2018-07-08T08:50:17.571Z,94644.81
2018-07-08T08:52:46.580Z,94642.39
2018-07-08T08:55:16.023Z,94642.13
2018-07-08T08:57:44.825Z,94636.08
2018-07-08T09:00:15.800Z,94639.75
2018-07-08T09:02:45.608Z,94634.09
2018-07-08T09:05:14.783Z,94636.06
2018-07-08T09:07:44.408Z,94640.90
2018-07-08T09:10:13.838Z,94639.44
2018-07-08T09:12:42.903Z,94649.70
2018-07-08T09:15:11.897Z,94654.80
2018-07-08T09:17:40.835Z,94653.20
2018-07-08T09:20:09.689Z,94653.42
2018-07-08T09:22:38.452Z,94648.98
2018-07-08T09:25:07.718Z,94662.28
2018-07-08T09:27:36.859Z,94668.14
2018-07-08T09:30:06.452Z,94660.55
2018-07-08T09:32:35.435Z,94663.48
2018-07-08T09:35:04.486Z,94666.34
2018-07-08T09:37:34.425Z,94672.87
2018-07-08T09:40:04.291Z,94667.89
2018-07-08T09:42:33.462Z,94661.91
2018-07-08T09:45:02.288Z,94667.20
2018-07-08T09:47:31.192Z,94665.63
2018-07-08T09:50:01.880Z,94658.37
2018-07-08T09:52:31.075Z,94653.69
2018-07-08T09:55:00.143Z,94660.66
2018-07-08T09:57:29.115Z,94670.63
2018-07-08T09:59:57.926Z,94660.95
2018-07-08T10:02:27.248Z,94669.43
2018-07-08T10:04:56.340Z,94670.27
2018-07-08T10:07:25.099Z,94668.36
2018-07-08T10:09:55.013Z,94666.21
2018-07-08T10:12:24.891Z,94672.00
2018-07-08T10:14:53.910Z,94666.39
2018-07-08T10:17:23.418Z,94668.77
2018-07-08T10:19:52.211Z,94667.16
2018-07-08T10:22:21.246Z,94668.31
2018-07-08T10:24:50.507Z,94671.47
2018-07-08T10:27:39.904Z,94677.36
2018-07-08T10:30:09.308Z,94670.76
2018-07-08T10:32:38.487Z,94679.88
2018-07-08T10:35:16.205Z,94674.64
2018-07-08T10:37:45.060Z,94672.06
2018-07-08T10:40:13.872Z,94672.78
2018-07-08T10:42:43.391Z,94670.31
2018-07-08T10:45:12.573Z,94669.92
2018-07-08T10:47:41.552Z,94672.11
2018-07-08T10:50:10.655Z,94668.04
2018-07-08T10:52:39.463Z,94666.87
2018-07-08T10:55:08.686Z,94665.55
2018-07-08T10:57:37.773Z,94662.34
2018-07-08T11:00:06.970Z,94664.08
2018-07-08T11:02:36.045Z,94658.30
2018-07-08T11:05:05.486Z,94659.03
2018-07-08T11:07:34.552Z,94662.34
2018-07-08T11:10:03.747Z,94665.36
2018-07-08T11:12:33.030Z,94660.64
2018-07-08T11:15:01.833Z,94657.36
2018-07-08T11:17:30.690Z,94655.20
2018-07-08T11:19:59.734Z,94656.20
2018-07-08T11:22:29.367Z,94657.75
2018-07-08T11:24:59.042Z,94663.65
2018-07-08T11:27:28.353Z,94650.75
2018-07-08T11:29:57.386Z,94654.20
2018-07-08T11:32:27.343Z,94645.20
2018-07-08T11:34:56.371Z,94646.70
2018-07-08T11:37:25.242Z,94645.17
2018-07-08T11:39:54.795Z,94646.52
2018-07-08T11:42:24.152Z,94646.82
2018-07-08T11:44:53.178Z,94641.23
2018-07-08T11:47:21.983Z,94641.52
2018-07-08T11:49:50.935Z,94641.88
2018-07-08T11:52:20.055Z,94640.36
2018-07-08T11:54:48.955Z,94638.95
2018-07-08T11:57:17.917Z,94641.73
2018-07-08T11:59:46.708Z,94645.34
2018-07-08T12:02:16.355Z,94646.13
2018-07-08T12:04:45.299Z,94643.91
2018-07-08T12:07:14.282Z,94644.50
2018-07-08T12:09:43.930Z,94639.53
2018-07-08T12:12:13.368Z,94637.02
2018-07-08T12:14:42.825Z,94630.34
2018-07-08T12:17:12.060Z,94629.81
2018-07-08T12:19:41.175Z,94622.27
2018-07-08T12:22:10.465Z,94623.91
2018-07-08T12:24:40.077Z,94615.00
2018-07-08T12:27:09.779Z,94617.33
2018-07-08T12:29:38.744Z,94621.58
2018-07-08T12:32:07.830Z,94624.77
2018-07-08T12:34:37.554Z,94618.34
2018-07-08T12:37:06.668Z,94618.50
2018-07-08T12:39:35.943Z,94616.38
2018-07-08T12:42:05.287Z,94627.28
2018-07-08T12:44:34.560Z,94623.55
2018-07-08T12:47:03.493Z,94624.82
2018-07-08T12:49:32.806Z,94623.89
2018-07-08T12:52:01.570Z,94624.42
2018-07-08T12:54:30.551Z,94621.98
2018-07-08T12:56:59.755Z,94623.33
2018-07-08T12:59:28.843Z,94636.70
2018-07-08T13:01:57.964Z,94635.49
2018-07-08T13:04:27.404Z,94627.50
2018-07-08T13:06:56.535Z,94632.41
2018-07-08T13:09:25.436Z,94627.02
2018-07-08T13:11:54.771Z,94626.18
2018-07-08T13:14:23.543Z,94623.95
2018-07-08T13:16:52.219Z,94621.36
2018-07-08T13:19:21.159Z,94619.44
2018-07-08T13:21:49.886Z,94617.05
2018-07-08T13:24:18.947Z,94623.77
2018-07-08T13:26:48.043Z,94616.10
2018-07-08T13:29:17.183Z,94619.50
2018-07-08T13:31:46.094Z,94620.04
2018-07-08T13:34:16.044Z,94632.50
2018-07-08T13:36:44.884Z,94630.82
2018-07-08T13:39:14.283Z,94633.77
2018-07-08T13:41:43.299Z,94637.72
2018-07-08T13:44:12.297Z,94638.63
2018-07-08T13:46:43.368Z,94630.33
2018-07-08T13:49:12.211Z,94634.33
2018-07-08T13:51:41.628Z,94630.73
2018-07-08T13:54:10.630Z,94629.27
2018-07-08T13:56:40.743Z,94636.33
2018-07-08T13:59:09.903Z,94633.23
2018-07-08T14:01:38.993Z,94632.44
2018-07-08T14:04:07.842Z,94629.92
2018-07-08T14:06:37.435Z,94631.17
2018-07-08T14:09:07.483Z,94632.38
2018-07-08T14:11:36.561Z,94631.03
2018-07-08T14:14:05.490Z,94631.46
2018-07-08T14:16:34.567Z,94628.58
2018-07-08T14:19:03.331Z,94622.43
2018-07-08T14:21:32.766Z,94633.33
2018-07-08T14:24:02.598Z,94632.05
2018-07-08T14:26:31.655Z,94639.11
2018-07-08T14:29:00.711Z,94631.99
2018-07-08T14:31:30.511Z,94638.60
2018-07-08T14:33:59.351Z,94629.84
2018-07-08T14:36:28.227Z,94627.80
2018-07-08T14:38:57.699Z,94625.63
2018-07-08T14:41:27.159Z,94614.36
2018-07-08T14:43:56.250Z,94613.45
2018-07-08T14:46:25.498Z,94604.55
2018-07-08T14:48:54.444Z,94604.93
2018-07-08T14:51:23.539Z,94606.73
2018-07-08T14:53:53.554Z,94602.03
2018-07-08T14:56:22.770Z,94612.40
2018-07-08T14:58:51.851Z,94612.52
2018-07-08T15:01:21.914Z,94610.17
2018-07-08T15:03:50.903Z,94611.42
2018-07-08T15:06:19.748Z,94612.80
2018-07-08T15:08:49.105Z,94610.05
2018-07-08T15:11:17.745Z,94608.28
2018-07-08T15:13:46.676Z,94611.50
2018-07-08T15:16:15.676Z,94610.01
2018-07-08T15:18:44.673Z,94614.13
2018-07-08T15:21:13.453Z,94614.22
2018-07-08T15:23:42.648Z,94618.81
2018-07-08T15:26:11.708Z,94618.20
2018-07-08T15:28:41.429Z,94615.94
2018-07-08T15:31:10.878Z,94626.54
2018-07-08T15:33:40.133Z,94619.45
2018-07-08T15:36:09.008Z,94622.68
2018-07-08T15:38:38.254Z,94620.75
2018-07-08T15:41:07.423Z,94624.09
2018-07-08T15:43:36.394Z,94618.30
2018-07-08T15:46:05.422Z,94622.98
2018-07-08T15:48:34.969Z,94620.50
2018-07-08T15:51:04.546Z,94619.22
2018-07-08T15:53:33.660Z,94614.05
2018-07-08T15:56:03.173Z,94611.38
2018-07-08T15:58:32.855Z,94615.51
2018-07-08T16:01:02.915Z,94617.86
2018-07-08T16:03:31.858Z,94628.48
2018-07-08T16:06:01.007Z,94638.76
2018-07-08T16:08:29.997Z,94643.78
2018-07-08T16:10:59.840Z,94637.20
2018-07-08T16:13:28.944Z,94635.01
2018-07-08T16:15:58.672Z,94633.43
2018-07-08T16:18:27.602Z,94637.58
2018-07-08T16:20:57.377Z,94628.08
2018-07-08T16:23:26.787Z,94634.41
2018-07-08T16:25:55.958Z,94635.29
2018-07-08T16:28:24.976Z,94644.45
2018-07-08T16:30:54.609Z,94655.19
2018-07-08T16:33:24.295Z,94647.14
2018-07-08T16:35:56.113Z,94646.93
2018-07-08T16:38:25.042Z,94643.45
2018-07-08T16:40:55.491Z,94655.61
2018-07-08T16:43:26.010Z,94660.87
2018-07-08T16:45:54.903Z,94660.28
2018-07-08T16:48:23.796Z,94670.17
2018-07-08T16:50:53.327Z,94663.89
2018-07-08T16:53:22.391Z,94663.70
2018-07-08T16:55:51.271Z,94670.74
2018-07-08T16:58:20.577Z,94673.73
2018-07-08T17:00:49.996Z,94671.11
2018-07-08T17:03:19.295Z,94677.48
2018-07-08T17:05:48.728Z,94675.17
2018-07-08T17:08:17.624Z,94682.29
2018-07-08T17:10:46.715Z,94677.78
2018-07-08T17:13:16.102Z,94683.63
2018-07-08T17:15:44.890Z,94680.00
2018-07-08T17:18:13.907Z,94691.03
2018-07-08T17:20:43.304Z,94691.89
2018-07-08T17:23:12.495Z,94697.73
2018-07-08T17:25:41.540Z,94696.69
2018-07-08T17:28:10.464Z,94697.28
2018-07-08T17:30:39.470Z,94692.60
2018-07-08T17:33:08.633Z,94693.27
2018-07-08T17:35:38.690Z,94688.35
2018-07-08T17:38:07.879Z,94690.75
2018-07-08T17:40:37.062Z,94689.39
2018-07-08T17:43:06.449Z,94700.16
2018-07-08T17:45:35.578Z,94698.08
2018-07-08T17:48:05.073Z,94699.13
2018-07-08T17:50:34.090Z,94692.72
2018-07-08T17:53:03.089Z,94689.97
2018-07-08T17:55:32.355Z,94691.52
2018-07-08T17:58:01.919Z,94688.41
2018-07-08T18:00:30.678Z,94677.80
2018-07-08T18:02:59.440Z,94679.77
2018-07-08T18:05:29.071Z,94678.91
2018-07-08T18:07:59.152Z,94692.55
2018-07-08T18:10:28.095Z,94695.32
2018-07-08T18:12:57.342Z,94701.31
2018-07-08T18:15:26.497Z,94700.75
2018-07-08T18:17:55.538Z,94701.22
2018-07-08T18:20:24.770Z,94705.38
2018-07-08T18:22:54.270Z,94703.52
2018-07-08T18:25:23.903Z,94702.41
2018-07-08T18:27:53.291Z,94700.65
2018-07-08T18:30:22.145Z,94710.02
2018-07-08T18:32:51.147Z,94708.41
2018-07-08T18:35:20.635Z,94717.71
2018-07-08T18:37:50.466Z,94725.81
2018-07-08T18:40:19.407Z,94719.88
2018-07-08T18:42:48.686Z,94727.83
2018-07-08T18:45:17.449Z,94732.42
2018-07-08T18:47:46.536Z,94736.86
2018-07-08T18:50:15.604Z,94740.80
2018-07-08T18:52:44.643Z,94745.81
2018-07-08T18:55:13.719Z,94746.97
2018-07-08T18:57:42.871Z,94751.77
2018-07-08T19:00:11.694Z,94750.88
2018-07-08T19:02:40.702Z,94757.86
2018-07-08T19:05:10.054Z,94758.72
2018-07-08T19:07:39.286Z,94751.89
2018-07-08T19:10:08.279Z,94750.61
2018-07-08T19:12:37.928Z,94751.97
2018-07-08T19:15:07.098Z,94752.73
2018-07-08T19:17:36.314Z,94756.89
2018-07-08T19:20:06.083Z,94755.58
2018-07-08T19:22:35.163Z,94761.05
2018-07-08T19:25:04.072Z,94756.41
2018-07-08T19:27:33.643Z,94756.41
2018-07-08T19:30:02.831Z,94755.30
2018-07-08T19:32:31.786Z,94755.42
2018-07-08T19:35:01.189Z,94755.66
2018-07-08T19:37:30.651Z,94758.69
2018-07-08T19:39:59.727Z,94760.28
2018-07-08T19:42:29.040Z,94759.14
2018-07-08T19:44:58.220Z,94756.05
2018-07-08T19:47:27.843Z,94762.04
2018-07-08T19:49:57.354Z,94763.34
2018-07-08T19:52:26.914Z,94760.57
2018-07-08T19:54:55.887Z,94754.52
2018-07-08T19:57:25.571Z,94757.17
2018-07-08T19:59:54.714Z,94759.41
2018-07-08T20:02:23.916Z,94760.91
2018-07-08T20:04:52.850Z,94763.70
2018-07-08T20:07:21.798Z,94766.83
2018-07-08T20:09:50.918Z,94768.07
2018-07-08T20:12:20.347Z,94758.00
2018-07-08T20:14:49.430Z,94759.62
2018-07-08T20:17:18.269Z,94759.75
2018-07-08T20:19:47.683Z,94758.74
2018-07-08T20:22:16.832Z,94756.84
2018-07-08T20:24:45.707Z,94758.36
2018-07-08T20:27:15.244Z,94755.45
2018-07-08T20:29:44.362Z,94748.87
2018-07-08T20:32:13.580Z,94756.50
2018-07-08T20:34:42.263Z,94747.89
2018-07-08T20:37:11.253Z,94753.44
2018-07-08T20:39:40.197Z,94750.94
2018-07-08T20:42:09.302Z,94752.73
2018-07-08T20:44:38.131Z,94749.70
2018-07-08T20:47:07.415Z,94750.88
2018-07-08T20:49:37.535Z,94747.75
2018-07-08T20:52:06.555Z,94742.25
2018-07-08T20:54:35.338Z,94740.75
2018-07-08T20:57:04.700Z,94738.52
2018-07-08T20:59:33.583Z,94751.41
2018-07-08T21:02:02.899Z,94745.02
2018-07-08T21:04:32.392Z,94740.59
2018-07-08T21:07:01.409Z,94736.22
2018-07-08T21:09:30.331Z,94731.43
2018-07-08T21:11:59.547Z,94737.75
2018-07-08T21:14:28.545Z,94734.52
2018-07-08T21:16:57.695Z,94735.91
2018-07-08T21:19:26.839Z,94734.39
2018-07-08T21:21:55.786Z,94728.36
2018-07-08T21:24:25.310Z,94741.33
2018-07-08T21:26:54.859Z,94738.69
2018-07-08T21:29:24.212Z,94749.59
2018-07-08T21:31:52.886Z,94748.81
2018-07-08T21:34:22.762Z,94749.72
2018-07-08T21:36:51.968Z,94753.56
2018-07-08T21:39:21.123Z,94753.20
2018-07-08T21:41:50.441Z,94754.11
2018-07-08T21:44:19.887Z,94758.48
2018-07-08T21:46:49.326Z,94755.58
2018-07-08T21:49:18.613Z,94763.89
2018-07-08T21:51:48.055Z,94760.00
2018-07-08T21:54:17.142Z,94761.52
2018-07-08T21:56:46.395Z,94757.80
2018-07-08T21:59:15.434Z,94762.59
2018-07-08T22:02:04.221Z,94758.20
2018-07-08T22:04:33.368Z,94754.80
2018-07-08T22:07:08.144Z,94763.83
2018-07-08T22:09:37.227Z,94761.81
2018-07-08T22:12:06.393Z,94757.66
2018-07-08T22:14:35.511Z,94763.69
2018-07-08T22:17:04.496Z,94759.61
2018-07-08T22:19:34.121Z,94761.88
2018-07-08T22:22:03.531Z,94761.22
2018-07-08T22:24:32.413Z,94764.73
2018-07-08T22:27:01.418Z,94757.04
2018-07-08T22:29:31.567Z,94765.72
2018-07-08T22:32:00.493Z,94762.23
2018-07-08T22:34:29.416Z,94760.84
2018-07-08T22:36:58.642Z,94761.62
2018-07-08T22:39:27.723Z,94758.34
2018-07-08T22:41:56.621Z,94758.01
2018-07-08T22:44:26.320Z,94759.90
2018-07-08T22:46:55.216Z,94764.06
2018-07-08T22:49:24.183Z,94757.88
2018-07-08T22:51:53.937Z,94763.20
2018-07-08T22:54:22.823Z,94765.45
2018-07-08T22:56:51.596Z,94757.39
2018-07-08T22:59:20.914Z,94756.63
2018-07-08T23:02:00.487Z,94755.64
2018-07-08T23:04:30.267Z,94760.44
2018-07-08T23:06:59.314Z,94758.56
2018-07-08T23:09:28.411Z,94760.97
2018-07-08T23:11:57.787Z,94760.78
2018-07-08T23:14:26.482Z,94758.02
2018-07-08T23:16:55.356Z,94752.88
2018-07-08T23:19:24.827Z,94752.66
2018-07-08T23:21:53.782Z,94745.88
2018-07-08T23:24:23.126Z,94745.88
2018-07-08T23:26:52.139Z,94747.88
2018-07-08T23:29:21.242Z,94746.98
2018-07-08T23:31:50.189Z,94743.23
2018-07-08T23:34:19.127Z,94750.66
2018-07-08T23:36:48.096Z,94748.41
2018-07-08T23:39:17.203Z,94745.91
2018-07-08T23:41:46.631Z,94751.20
2018-07-08T23:44:15.871Z,94745.88
2018-07-08T23:46:45.614Z,94741.48
2018-07-08T23:49:14.636Z,94741.23
2018-07-08T23:51:43.434Z,94743.48
2018-07-08T23:54:12.544Z,94738.35
2018-07-08T23:56:41.960Z,94732.06
2018-07-08T23:59:11.002Z,94733.22
